createdAt,value
2019-03-12T00:00:52.371Z,3.66
2019-03-12T00:01:52.374Z,3.66
2019-03-12T00:02:50.527Z,3.56
2019-03-12T00:03:52.380Z,3.65
2019-03-12T00:04:52.391Z,3.58
2019-03-12T00:05:52.369Z,3.65
2019-03-12T00:06:52.369Z,3.55
2019-03-12T00:07:52.363Z,3.59
2019-03-12T00:08:52.386Z,3.59
2019-03-12T00:09:53.812Z,3.60
2019-03-12T00:10:52.378Z,3.55
2019-03-12T00:11:52.365Z,3.51
2019-03-12T00:12:52.372Z,3.56
2019-03-12T00:13:52.375Z,3.62
2019-03-12T00:14:52.387Z,3.62
2019-03-12T00:15:52.369Z,3.51
2019-03-12T00:16:52.379Z,3.55
2019-03-12T00:17:51.894Z,3.56
2019-03-12T00:18:51.875Z,3.59
2019-03-12T00:19:51.886Z,3.58
2019-03-12T00:20:51.856Z,3.55
2019-03-12T00:21:51.858Z,3.56
2019-03-12T00:22:51.900Z,3.47
2019-03-12T00:23:51.858Z,3.48
2019-03-12T00:24:51.855Z,3.53
2019-03-12T00:25:51.194Z,3.51
2019-03-12T00:26:51.855Z,3.51
2019-03-12T00:27:51.880Z,3.45
2019-03-12T00:28:51.854Z,3.44
2019-03-12T00:29:51.854Z,3.51
2019-03-12T00:30:51.854Z,3.51
2019-03-12T00:31:51.855Z,3.44
2019-03-12T00:32:51.867Z,3.29
2019-03-12T00:33:51.879Z,3.42
2019-03-12T00:34:51.857Z,3.31
2019-03-12T00:35:51.857Z,3.36
2019-03-12T00:36:51.856Z,3.42
2019-03-12T00:37:51.871Z,3.37
2019-03-12T00:38:51.866Z,3.40
2019-03-12T00:39:51.905Z,3.37
2019-03-12T00:40:51.858Z,3.29
2019-03-12T00:41:51.854Z,3.31
2019-03-12T00:42:51.865Z,3.42
2019-03-12T00:43:51.856Z,3.42
2019-03-12T00:44:51.855Z,3.42
2019-03-12T00:45:51.893Z,3.37
2019-03-12T00:46:51.855Z,3.36
2019-03-12T00:47:51.866Z,3.37
2019-03-12T00:48:51.855Z,3.28
2019-03-12T00:49:51.856Z,3.25
2019-03-12T00:50:51.856Z,3.26
2019-03-12T00:51:51.857Z,3.25
2019-03-12T00:52:51.922Z,3.22
2019-03-12T00:53:51.867Z,3.10
2019-03-12T00:54:51.870Z,3.13
2019-03-12T00:55:51.865Z,3.05
2019-03-12T00:56:51.856Z,3.08
2019-03-12T00:57:51.872Z,3.14
2019-03-12T00:58:51.886Z,3.10
2019-03-12T00:59:51.903Z,3.03
2019-03-12T01:00:49.911Z,3.04
2019-03-12T01:01:51.883Z,3.07
2019-03-12T01:02:51.881Z,3.00
2019-03-12T01:03:51.861Z,2.95
2019-03-12T01:04:51.859Z,2.93
2019-03-12T01:05:51.863Z,3.10
2019-03-12T01:06:51.365Z,3.03
2019-03-12T01:07:51.380Z,3.01
2019-03-12T01:08:51.357Z,3.01
2019-03-12T01:09:51.384Z,2.98
2019-03-12T01:10:51.375Z,2.92
2019-03-12T01:11:51.394Z,2.93
2019-03-12T01:12:51.431Z,2.98
2019-03-12T01:13:51.357Z,2.93
2019-03-12T01:14:51.369Z,2.85
2019-03-12T01:15:51.362Z,2.80
2019-03-12T01:16:51.374Z,2.82
2019-03-12T01:17:51.360Z,2.82
2019-03-12T01:18:51.365Z,2.74
2019-03-12T01:19:51.363Z,2.77
2019-03-12T01:20:51.365Z,2.80
2019-03-12T01:21:51.363Z,2.80
2019-03-12T01:22:51.360Z,2.79
2019-03-12T01:23:51.364Z,2.75
2019-03-12T01:24:51.386Z,2.79
2019-03-12T01:25:51.368Z,2.72
2019-03-12T01:26:51.378Z,2.65
2019-03-12T01:27:51.353Z,2.65
2019-03-12T01:28:51.379Z,2.71
2019-03-12T01:29:51.373Z,2.60
2019-03-12T01:30:51.425Z,2.61
2019-03-12T01:31:51.402Z,2.54
2019-03-12T01:32:51.473Z,2.60
2019-03-12T01:33:51.385Z,2.61
2019-03-12T01:34:52.386Z,2.54
2019-03-12T01:35:49.566Z,2.61
2019-03-12T01:36:50.566Z,2.57
2019-03-12T01:37:51.411Z,2.54
2019-03-12T01:38:51.487Z,2.64
2019-03-12T01:39:51.462Z,2.60
2019-03-12T01:40:51.391Z,2.60
2019-03-12T01:41:49.504Z,2.51
2019-03-12T01:42:52.655Z,2.62
2019-03-12T01:43:51.406Z,2.49
2019-03-12T01:44:52.400Z,2.57
2019-03-12T01:45:51.381Z,2.53
2019-03-12T01:46:51.353Z,2.49
2019-03-12T01:47:51.356Z,2.54
2019-03-12T01:48:51.380Z,2.51
2019-03-12T01:49:51.388Z,2.53
2019-03-12T01:50:51.390Z,2.47
2019-03-12T01:51:51.402Z,2.43
2019-03-12T01:52:51.380Z,2.44
2019-03-12T01:53:51.450Z,2.42
2019-03-12T01:54:52.444Z,2.38
2019-03-12T01:55:50.862Z,2.31
2019-03-12T01:56:50.912Z,2.28
2019-03-12T01:57:50.879Z,2.22
2019-03-12T01:58:50.921Z,2.17
2019-03-12T01:59:51.875Z,2.22
2019-03-12T02:00:51.879Z,2.29
2019-03-12T02:01:51.882Z,2.29
2019-03-12T02:02:50.931Z,2.17
2019-03-12T02:03:50.986Z,2.24
2019-03-12T02:04:51.115Z,2.20
2019-03-12T02:05:51.899Z,2.14
2019-03-12T02:06:50.995Z,2.15
2019-03-12T02:07:50.987Z,2.25
2019-03-12T02:08:50.975Z,2.18
2019-03-12T02:09:50.961Z,2.14
2019-03-12T02:10:49.410Z,2.15
2019-03-12T02:11:50.955Z,2.20
2019-03-12T02:12:50.959Z,2.14
2019-03-12T02:13:51.007Z,2.11
2019-03-12T02:14:50.996Z,2.24
2019-03-12T02:15:50.897Z,2.17
2019-03-12T02:16:49.204Z,2.13
2019-03-12T02:17:51.045Z,2.15
2019-03-12T02:18:51.109Z,2.17
2019-03-12T02:19:51.999Z,2.18
2019-03-12T02:20:50.982Z,2.11
2019-03-12T02:21:51.144Z,2.17
2019-03-12T02:22:51.921Z,2.14
2019-03-12T02:23:50.987Z,2.13
2019-03-12T02:24:53.159Z,2.07
2019-03-12T02:27:06.254Z,2.10
2019-03-12T02:28:07.770Z,2.07
2019-03-12T02:29:07.744Z,2.07
2019-03-12T02:30:07.729Z,2.10
2019-03-12T02:31:07.766Z,2.13
2019-03-12T02:32:08.755Z,2.10
2019-03-12T02:33:07.732Z,2.08
2019-03-12T02:34:06.873Z,2.04
2019-03-12T02:35:08.714Z,2.08
2019-03-12T02:36:07.722Z,2.04
2019-03-12T02:37:07.758Z,2.00
2019-03-12T02:38:08.757Z,2.11
2019-03-12T02:39:07.782Z,1.91
2019-03-12T02:40:06.075Z,1.99
2019-03-12T02:41:07.730Z,1.95
2019-03-12T02:42:07.738Z,1.95
2019-03-12T02:43:07.811Z,1.97
2019-03-12T02:44:07.747Z,1.92
2019-03-12T02:45:08.720Z,1.92
2019-03-12T02:46:07.819Z,1.91
2019-03-12T02:47:07.775Z,1.87
2019-03-12T02:48:07.708Z,1.94
2019-03-12T02:49:09.717Z,1.94
2019-03-12T02:50:08.714Z,1.92
2019-03-12T02:51:07.723Z,1.95
2019-03-12T02:52:07.719Z,1.95
2019-03-12T02:53:07.775Z,1.87
2019-03-12T02:54:07.791Z,1.81
2019-03-12T02:55:07.713Z,1.87
2019-03-12T02:56:07.739Z,1.84
2019-03-12T02:57:07.729Z,1.87
2019-03-12T02:58:08.710Z,1.85
2019-03-12T02:59:07.804Z,1.88
2019-03-12T03:00:08.711Z,1.74
2019-03-12T03:01:07.764Z,1.84
2019-03-12T03:02:07.764Z,1.87
2019-03-12T03:03:08.703Z,1.76
2019-03-12T03:04:07.896Z,1.87
2019-03-12T03:05:07.827Z,1.78
2019-03-12T03:06:08.780Z,1.76
2019-03-12T03:07:07.963Z,1.77
2019-03-12T03:08:09.519Z,1.78
2019-03-12T03:09:05.903Z,1.73
2019-03-12T03:10:07.862Z,1.76
2019-03-12T03:11:07.931Z,1.77
2019-03-12T03:12:07.527Z,1.70
2019-03-12T03:13:07.502Z,1.66
2019-03-12T03:14:08.478Z,1.73
2019-03-12T03:15:07.192Z,1.66
2019-03-12T03:16:07.209Z,1.62
2019-03-12T03:17:07.191Z,1.66
2019-03-12T03:18:07.210Z,1.67
2019-03-12T03:19:07.213Z,1.67
2019-03-12T03:20:07.194Z,1.62
2019-03-12T03:21:07.189Z,1.53
2019-03-12T03:22:07.195Z,1.53
2019-03-12T03:23:07.231Z,1.55
2019-03-12T03:24:07.279Z,1.56
2019-03-12T03:25:07.215Z,1.48
2019-03-12T03:26:07.198Z,1.49
2019-03-12T03:27:07.217Z,1.42
2019-03-12T03:28:07.290Z,1.50
2019-03-12T03:29:07.214Z,1.37
2019-03-12T03:30:07.253Z,1.48
2019-03-12T03:31:07.229Z,1.34
2019-03-12T03:32:05.489Z,1.37
2019-03-12T03:33:07.259Z,1.48
2019-03-12T03:34:07.203Z,1.35
2019-03-12T03:35:07.190Z,1.49
2019-03-12T03:36:07.219Z,1.48
2019-03-12T03:37:07.189Z,1.44
2019-03-12T03:38:05.429Z,1.35
2019-03-12T03:39:07.201Z,1.48
2019-03-12T03:40:06.406Z,1.34
2019-03-12T03:41:07.203Z,1.41
2019-03-12T03:42:07.183Z,1.45
2019-03-12T03:43:07.185Z,1.40
2019-03-12T03:44:07.199Z,1.44
2019-03-12T03:45:07.191Z,1.31
2019-03-12T03:46:07.182Z,1.34
2019-03-12T03:47:07.227Z,1.44
2019-03-12T03:48:07.181Z,1.38
2019-03-12T03:49:07.198Z,1.42
2019-03-12T03:50:07.189Z,1.31
2019-03-12T03:51:07.183Z,1.44
2019-03-12T03:52:07.184Z,1.38
2019-03-12T03:53:07.217Z,1.37
2019-03-12T03:54:07.200Z,1.28
2019-03-12T03:55:07.196Z,1.31
2019-03-12T03:56:07.183Z,1.28
2019-03-12T03:57:07.188Z,1.31
2019-03-12T03:58:07.187Z,1.34
2019-03-12T03:59:07.214Z,1.28
2019-03-12T04:00:07.228Z,1.28
2019-03-12T04:01:07.209Z,1.20
2019-03-12T04:02:06.687Z,1.20
2019-03-12T04:03:06.699Z,1.20
2019-03-12T04:04:06.704Z,1.23
2019-03-12T04:05:06.698Z,1.31
2019-03-12T04:06:06.694Z,1.26
2019-03-12T04:07:06.705Z,1.35
2019-03-12T04:08:06.715Z,1.26
2019-03-12T04:09:06.709Z,1.38
2019-03-12T04:10:06.704Z,1.35
2019-03-12T04:11:06.691Z,1.34
2019-03-12T04:12:06.728Z,1.28
2019-03-12T04:13:06.682Z,1.26
2019-03-12T04:14:06.756Z,1.35
2019-03-12T04:15:06.727Z,1.31
2019-03-12T04:16:06.721Z,1.24
2019-03-12T04:17:06.732Z,1.30
2019-03-12T04:18:07.774Z,1.35
2019-03-12T04:19:06.866Z,1.34
2019-03-12T04:20:06.796Z,1.38
2019-03-12T04:21:06.908Z,1.22
2019-03-12T04:22:06.830Z,1.28
2019-03-12T04:23:06.691Z,1.31
2019-03-12T04:24:06.781Z,1.31
2019-03-12T04:25:06.684Z,1.23
2019-03-12T04:26:06.688Z,1.28
2019-03-12T04:27:06.682Z,1.31
2019-03-12T04:28:06.678Z,1.37
2019-03-12T04:29:06.763Z,1.31
2019-03-12T04:30:06.680Z,1.41
2019-03-12T04:31:06.677Z,1.37
2019-03-12T04:32:06.704Z,1.38
2019-03-12T04:33:07.726Z,1.32
2019-03-12T04:34:06.710Z,1.40
2019-03-12T04:35:06.688Z,1.37
2019-03-12T04:36:06.719Z,1.35
2019-03-12T04:37:06.748Z,1.38
2019-03-12T04:38:07.304Z,1.41
2019-03-12T04:39:06.735Z,1.34
2019-03-12T04:40:07.737Z,1.31
2019-03-12T04:41:06.703Z,1.41
2019-03-12T04:42:06.691Z,1.35
2019-03-12T04:43:06.774Z,1.34
2019-03-12T04:44:07.722Z,1.44
2019-03-12T04:45:06.750Z,1.37
2019-03-12T04:46:06.726Z,1.40
2019-03-12T04:47:06.689Z,1.37
2019-03-12T04:48:06.718Z,1.34
2019-03-12T04:49:05.721Z,1.40
2019-03-12T04:50:06.724Z,1.41
2019-03-12T04:51:05.776Z,1.30
2019-03-12T04:52:06.212Z,1.28
2019-03-12T04:53:06.286Z,1.30
2019-03-12T04:54:06.186Z,1.44
2019-03-12T04:55:06.190Z,1.37
2019-03-12T04:56:06.205Z,1.44
2019-03-12T04:57:06.180Z,1.30
2019-03-12T04:58:06.193Z,1.49
2019-03-12T04:59:06.180Z,1.34
2019-03-12T05:00:06.190Z,1.40
2019-03-12T05:01:05.763Z,1.41
2019-03-12T05:02:06.234Z,1.34
2019-03-12T05:03:06.201Z,1.30
2019-03-12T05:04:06.191Z,1.31
2019-03-12T05:05:07.229Z,1.32
2019-03-12T05:06:06.183Z,1.40
2019-03-12T05:07:04.586Z,1.40
2019-03-12T05:08:06.287Z,1.34
2019-03-12T05:09:07.231Z,1.32
2019-03-12T05:10:06.252Z,1.31
2019-03-12T05:11:06.205Z,1.38
2019-03-12T05:12:06.207Z,1.41
2019-03-12T05:13:06.286Z,1.42
2019-03-12T05:14:06.192Z,1.40
2019-03-12T05:15:06.189Z,1.32
2019-03-12T05:16:06.235Z,1.31
2019-03-12T05:17:06.178Z,1.32
2019-03-12T05:18:06.190Z,1.41
2019-03-12T05:19:06.283Z,1.45
2019-03-12T05:20:07.202Z,1.44
2019-03-12T05:21:07.198Z,1.34
2019-03-12T05:22:06.249Z,1.30
2019-03-12T05:23:06.201Z,1.41
2019-03-12T05:24:06.209Z,1.44
2019-03-12T05:25:06.188Z,1.34
2019-03-12T05:26:06.205Z,1.34
2019-03-12T05:27:06.200Z,1.32
2019-03-12T05:28:06.192Z,1.44
2019-03-12T05:29:06.202Z,1.31
2019-03-12T05:30:06.188Z,1.38
2019-03-12T05:31:06.185Z,1.37
2019-03-12T05:32:06.190Z,1.38
2019-03-12T05:33:06.188Z,1.45
2019-03-12T05:34:06.235Z,1.40
2019-03-12T05:35:06.184Z,1.49
2019-03-12T05:36:06.183Z,1.44
2019-03-12T05:37:06.202Z,1.38
2019-03-12T05:38:06.211Z,1.44
2019-03-12T05:39:06.242Z,1.48
2019-03-12T05:40:06.177Z,1.41
2019-03-12T05:41:05.686Z,1.42
2019-03-12T05:42:05.677Z,1.45
2019-03-12T05:43:05.698Z,1.52
2019-03-12T05:44:05.696Z,1.49
2019-03-12T05:45:05.740Z,1.44
2019-03-12T05:46:05.690Z,1.49
2019-03-12T05:47:08.119Z,1.37
2019-03-12T05:48:05.709Z,1.45
2019-03-12T05:49:05.699Z,1.45
2019-03-12T05:50:05.741Z,1.52
2019-03-12T05:51:05.675Z,1.50
2019-03-12T05:52:05.712Z,1.53
2019-03-12T05:53:05.679Z,1.58
2019-03-12T05:54:05.703Z,1.50
2019-03-12T05:55:05.700Z,1.52
2019-03-12T05:56:05.695Z,1.53
2019-03-12T05:57:05.728Z,1.53
2019-03-12T05:58:05.783Z,1.52
2019-03-12T05:59:05.695Z,1.49
2019-03-12T06:00:03.998Z,1.59
2019-03-12T06:01:05.704Z,1.49
2019-03-12T06:02:05.737Z,1.49
2019-03-12T06:03:05.684Z,1.53
2019-03-12T06:04:05.696Z,1.53
2019-03-12T06:05:05.692Z,1.52
2019-03-12T06:06:03.931Z,1.53
2019-03-12T06:07:05.691Z,1.58
2019-03-12T06:08:05.681Z,1.62
2019-03-12T06:09:05.700Z,1.56
2019-03-12T06:10:05.695Z,1.55
2019-03-12T06:11:05.696Z,1.55
2019-03-12T06:12:03.868Z,1.56
2019-03-12T06:13:05.737Z,1.58
2019-03-12T06:14:05.704Z,1.55
2019-03-12T06:15:05.693Z,1.62
2019-03-12T06:16:05.687Z,1.67
2019-03-12T06:17:05.707Z,1.73
2019-03-12T06:18:03.801Z,1.68
2019-03-12T06:19:05.699Z,1.68
2019-03-12T06:20:05.682Z,1.70
2019-03-12T06:21:05.688Z,1.70
2019-03-12T06:22:05.687Z,1.74
2019-03-12T06:23:05.681Z,1.77
2019-03-12T06:24:03.773Z,1.73
2019-03-12T06:25:05.746Z,1.77
2019-03-12T06:26:05.698Z,1.78
2019-03-12T06:27:05.686Z,1.84
2019-03-12T06:28:56.003Z,1.76
2019-03-12T06:29:56.024Z,1.77
2019-03-12T06:30:57.806Z,1.85
2019-03-12T06:31:57.811Z,1.80
2019-03-12T06:32:57.789Z,1.87
2019-03-12T06:33:57.825Z,1.91
2019-03-12T06:34:57.808Z,1.92
2019-03-12T06:35:55.925Z,1.92
2019-03-12T06:36:57.804Z,1.99
2019-03-12T06:37:57.813Z,1.95
2019-03-12T06:38:57.799Z,2.04
2019-03-12T06:39:57.832Z,2.13
2019-03-12T06:40:57.801Z,2.08
2019-03-12T06:41:57.809Z,2.08
2019-03-12T06:42:57.804Z,2.10
2019-03-12T06:43:57.879Z,2.11
2019-03-12T06:44:57.799Z,2.10
2019-03-12T06:45:57.807Z,2.17
2019-03-12T06:46:57.827Z,2.18
2019-03-12T06:47:57.788Z,2.13
2019-03-12T06:48:57.341Z,2.17
2019-03-12T06:49:57.352Z,2.24
2019-03-12T06:50:57.303Z,2.22
2019-03-12T06:51:57.333Z,2.31
2019-03-12T06:52:57.328Z,2.32
2019-03-12T06:53:57.310Z,2.35
2019-03-12T06:54:57.328Z,2.42
2019-03-12T06:55:57.312Z,2.42
2019-03-12T06:56:57.295Z,2.39
2019-03-12T06:57:57.290Z,2.47
2019-03-12T06:58:57.323Z,2.49
2019-03-12T06:59:57.298Z,2.51
2019-03-12T07:00:57.316Z,2.51
2019-03-12T07:01:57.321Z,2.50
2019-03-12T07:02:57.298Z,2.47
2019-03-12T07:03:57.306Z,2.54
2019-03-12T07:04:57.155Z,2.57
2019-03-12T07:05:57.299Z,2.60
2019-03-12T07:07:00.720Z,2.60
2019-03-12T07:07:57.294Z,2.54
2019-03-12T07:08:57.333Z,2.53
2019-03-12T07:09:57.370Z,2.57
2019-03-12T07:10:56.504Z,2.57
2019-03-12T07:11:57.283Z,2.62
2019-03-12T07:12:57.287Z,2.68
2019-03-12T07:13:57.363Z,2.68
2019-03-12T07:14:57.285Z,2.69
2019-03-12T07:15:57.285Z,2.74
2019-03-12T07:16:55.497Z,2.77
2019-03-12T07:17:57.301Z,2.86
2019-03-12T07:18:57.303Z,2.87
2019-03-12T07:19:57.297Z,2.93
2019-03-12T07:20:57.313Z,2.85
2019-03-12T07:21:57.313Z,2.93
2019-03-12T07:22:57.296Z,2.97
2019-03-12T07:23:57.346Z,2.93
2019-03-12T07:24:57.314Z,3.08
2019-03-12T07:25:56.031Z,3.03
2019-03-12T07:27:03.089Z,3.03
2019-03-12T07:27:57.395Z,3.10
2019-03-12T07:28:57.385Z,2.98
2019-03-12T07:29:57.344Z,3.13
2019-03-12T07:30:57.333Z,3.19
2019-03-12T07:31:57.361Z,3.23
2019-03-12T07:32:57.334Z,3.26
2019-03-12T07:33:56.856Z,3.22
2019-03-12T07:34:56.849Z,3.34
2019-03-12T07:35:56.819Z,3.42
2019-03-12T07:36:56.825Z,3.42
2019-03-12T07:37:57.880Z,3.42
2019-03-12T07:38:56.873Z,3.59
2019-03-12T07:39:56.870Z,3.60
2019-03-12T07:40:56.829Z,3.58
2019-03-12T07:41:56.843Z,3.65
2019-03-12T07:42:56.856Z,3.60
2019-03-12T07:43:56.845Z,3.66
2019-03-12T07:44:56.824Z,3.69
2019-03-12T07:45:56.848Z,3.56
2019-03-12T07:46:56.829Z,3.60
2019-03-12T07:47:57.898Z,3.51
2019-03-12T07:48:56.835Z,3.62
2019-03-12T07:49:56.833Z,3.66
2019-03-12T07:50:56.823Z,3.69
2019-03-12T07:51:55.186Z,3.68
2019-03-12T07:53:02.678Z,3.68
2019-03-12T07:53:59.651Z,3.68
2019-03-12T07:54:57.902Z,3.70
2019-03-12T07:55:56.907Z,3.70
2019-03-12T07:56:56.883Z,3.68
2019-03-12T07:57:56.879Z,3.76
2019-03-12T07:59:08.893Z,3.70
2019-03-12T07:59:56.909Z,3.80
2019-03-12T08:00:56.934Z,3.73
2019-03-12T08:01:56.903Z,3.78
2019-03-12T08:02:57.384Z,3.77
2019-03-12T08:03:59.161Z,3.83
2019-03-12T08:04:58.000Z,3.86
2019-03-12T08:05:56.980Z,3.88
2019-03-12T08:06:57.003Z,3.92
2019-03-12T08:07:56.937Z,3.95
2019-03-12T08:08:56.962Z,3.96
2019-03-12T08:09:56.947Z,4.04
2019-03-12T08:10:56.894Z,4.16
2019-03-12T08:11:56.989Z,4.14
2019-03-12T08:13:02.769Z,4.20
2019-03-12T08:13:56.143Z,4.16
2019-03-12T08:14:55.127Z,4.22
2019-03-12T08:15:56.559Z,4.30
2019-03-12T08:16:56.645Z,4.28
2019-03-12T08:17:56.483Z,4.26
2019-03-12T08:18:56.627Z,4.28
2019-03-12T08:19:56.603Z,4.26
2019-03-12T08:23:19.785Z,4.23
2019-03-12T08:24:28.584Z,4.26
2019-03-12T08:25:21.511Z,4.19
2019-03-12T08:26:21.491Z,4.16
2019-03-12T08:27:21.570Z,4.31
2019-03-12T08:28:21.478Z,4.34
2019-03-12T08:29:21.490Z,4.31
2019-03-12T08:30:21.521Z,4.40
2019-03-12T08:31:21.480Z,4.40
2019-03-12T08:32:23.847Z,4.50
2019-03-12T08:33:21.505Z,4.38
2019-03-12T08:34:21.492Z,4.34
2019-03-12T08:35:21.480Z,4.48
2019-03-12T08:36:21.483Z,4.53
2019-03-12T08:37:21.478Z,4.52
2019-03-12T08:38:21.522Z,4.49
2019-03-12T08:39:21.504Z,4.49
2019-03-12T08:40:21.484Z,4.50
2019-03-12T08:41:21.478Z,4.44
2019-03-12T08:42:21.478Z,4.41
2019-03-12T08:43:21.504Z,4.49
2019-03-12T08:44:21.514Z,4.37
2019-03-12T08:45:21.484Z,4.44
2019-03-12T08:46:22.247Z,4.48
2019-03-12T08:47:21.482Z,4.55
2019-03-12T08:48:21.477Z,4.48
2019-03-12T08:49:21.492Z,4.55
2019-03-12T08:50:20.503Z,4.52
2019-03-12T08:51:21.990Z,4.58
2019-03-12T08:52:20.977Z,4.58
2019-03-12T08:53:20.980Z,4.56
2019-03-12T08:54:21.562Z,4.63
2019-03-12T08:55:20.979Z,4.67
2019-03-12T08:56:19.445Z,4.67
2019-03-12T08:57:20.980Z,4.68
2019-03-12T08:58:20.989Z,4.63
2019-03-12T08:59:21.006Z,4.63
2019-03-12T09:00:24.156Z,4.73
2019-03-12T09:01:20.978Z,4.78
2019-03-12T09:02:19.385Z,4.82
2019-03-12T09:03:20.980Z,4.84
2019-03-12T09:04:20.989Z,4.92
2019-03-12T09:05:20.981Z,4.89
2019-03-12T09:06:20.979Z,4.90
2019-03-12T09:07:20.982Z,4.96
2019-03-12T09:08:21.008Z,5.02
2019-03-12T09:09:20.997Z,4.99
2019-03-12T09:10:20.983Z,5.08
2019-03-12T09:11:20.982Z,5.07
2019-03-12T09:12:20.977Z,5.04
2019-03-12T09:13:20.979Z,5.04
2019-03-12T09:14:21.005Z,5.14
2019-03-12T09:15:20.979Z,5.07
2019-03-12T09:16:20.982Z,5.08
2019-03-12T09:17:20.977Z,5.15
2019-03-12T09:18:20.981Z,5.32
2019-03-12T09:19:20.993Z,5.30
2019-03-12T09:20:21.009Z,5.28
2019-03-12T09:21:20.977Z,5.33
2019-03-12T09:22:20.977Z,5.44
2019-03-12T09:23:21.032Z,5.51
2019-03-12T09:24:21.004Z,5.57
2019-03-12T09:25:20.999Z,5.64
2019-03-12T09:26:20.979Z,5.62
2019-03-12T09:27:21.032Z,5.69
2019-03-12T09:28:20.983Z,5.75
2019-03-12T09:29:21.008Z,5.66
2019-03-12T09:30:20.983Z,5.83
2019-03-12T09:31:20.981Z,5.89
2019-03-12T09:32:20.980Z,5.91
2019-03-12T09:33:21.020Z,5.97
2019-03-12T09:34:21.002Z,5.98
2019-03-12T09:35:20.989Z,5.99
2019-03-12T09:36:20.979Z,5.99
2019-03-12T09:37:20.976Z,5.98
2019-03-12T09:38:21.011Z,5.99
2019-03-12T09:39:20.521Z,6.17
2019-03-12T09:40:20.542Z,6.14
2019-03-12T09:41:20.493Z,6.33
2019-03-12T09:42:20.511Z,6.26
2019-03-12T09:43:18.935Z,6.22
2019-03-12T09:44:20.500Z,6.20
2019-03-12T09:45:20.477Z,6.30
2019-03-12T09:46:20.478Z,6.24
2019-03-12T09:47:20.486Z,6.17
2019-03-12T09:48:20.522Z,6.17
2019-03-12T09:49:18.933Z,6.28
2019-03-12T09:50:20.479Z,6.27
2019-03-12T09:51:20.507Z,6.28
2019-03-12T09:52:20.477Z,6.38
2019-03-12T09:53:20.485Z,6.36
2019-03-12T09:54:20.494Z,6.36
2019-03-12T09:55:18.815Z,6.46
2019-03-12T09:56:20.498Z,6.59
2019-03-12T09:57:20.495Z,6.54
2019-03-12T09:58:19.788Z,6.67
2019-03-12T09:59:20.501Z,6.67
2019-03-12T10:00:20.500Z,6.69
2019-03-12T10:01:18.757Z,6.66
2019-03-12T10:02:20.512Z,6.63
2019-03-12T10:03:20.488Z,6.51
2019-03-12T10:04:20.597Z,6.56
2019-03-12T10:05:20.494Z,6.49
2019-03-12T10:06:20.494Z,6.52
2019-03-12T10:07:18.750Z,6.69
2019-03-12T10:08:20.478Z,6.67
2019-03-12T10:09:20.497Z,6.69
2019-03-12T10:10:20.503Z,6.78
2019-03-12T10:11:20.513Z,6.79
2019-03-12T10:12:20.504Z,6.84
2019-03-12T10:13:18.619Z,6.74
2019-03-12T10:14:20.500Z,6.81
2019-03-12T10:15:20.487Z,6.84
2019-03-12T10:16:20.544Z,6.69
2019-03-12T10:17:20.489Z,6.79
2019-03-12T10:18:20.486Z,6.87
2019-03-12T10:19:20.502Z,6.92
2019-03-12T10:20:20.488Z,6.79
2019-03-12T10:21:20.481Z,6.84
2019-03-12T10:22:20.502Z,6.70
2019-03-12T10:23:20.489Z,6.69
2019-03-12T10:24:20.506Z,6.72
2019-03-12T10:25:18.538Z,6.67
2019-03-12T10:26:19.982Z,6.66
2019-03-12T10:27:19.982Z,6.69
2019-03-12T10:28:19.979Z,6.70
2019-03-12T10:29:20.018Z,6.66
2019-03-12T10:30:19.991Z,6.70
2019-03-12T10:31:19.998Z,6.77
2019-03-12T10:32:19.989Z,6.79
2019-03-12T10:33:19.992Z,6.79
2019-03-12T10:34:28.801Z,6.77
2019-03-12T10:35:20.981Z,6.79
2019-03-12T10:36:20.191Z,6.81
2019-03-12T10:37:19.981Z,6.85
2019-03-12T10:38:20.065Z,6.85
2019-03-12T10:39:20.003Z,6.85
2019-03-12T10:40:19.992Z,6.96
2019-03-12T10:41:20.018Z,6.84
2019-03-12T10:42:19.984Z,6.85
2019-03-12T10:43:19.986Z,6.84
2019-03-12T10:44:20.032Z,6.89
2019-03-12T10:45:19.980Z,6.97
2019-03-12T10:46:19.982Z,7.15
2019-03-12T10:47:20.001Z,7.10
2019-03-12T10:48:20.002Z,6.97
2019-03-12T10:49:19.997Z,7.10
2019-03-12T10:50:19.980Z,7.13
2019-03-12T10:51:19.978Z,7.13
2019-03-12T10:52:19.981Z,7.03
2019-03-12T10:53:20.010Z,6.99
2019-03-12T10:54:19.992Z,7.13
2019-03-12T10:55:19.985Z,7.10
2019-03-12T10:56:19.979Z,7.07
2019-03-12T10:57:21.647Z,7.02
2019-03-12T10:58:19.980Z,7.03
2019-03-12T10:59:20.022Z,7.05
2019-03-12T11:00:20.007Z,7.13
2019-03-12T11:01:19.997Z,7.10
2019-03-12T11:02:19.985Z,7.24
2019-03-12T11:03:19.977Z,7.21
2019-03-12T11:04:19.991Z,7.11
2019-03-12T11:05:20.003Z,7.18
2019-03-12T11:06:19.419Z,7.24
2019-03-12T11:07:19.988Z,7.33
2019-03-12T11:08:19.998Z,7.21
2019-03-12T11:09:20.000Z,7.29
2019-03-12T11:10:19.993Z,7.24
2019-03-12T11:11:19.984Z,7.36
2019-03-12T11:12:18.016Z,7.23
2019-03-12T11:13:19.481Z,7.36
2019-03-12T11:14:19.514Z,7.28
2019-03-12T11:15:19.503Z,7.43
2019-03-12T11:16:19.485Z,7.39
2019-03-12T11:17:19.481Z,7.45
2019-03-12T11:18:19.509Z,7.42
2019-03-12T11:19:19.501Z,7.47
2019-03-12T11:20:19.561Z,7.48
2019-03-12T11:21:19.489Z,7.47
2019-03-12T11:22:19.543Z,7.58
2019-03-12T11:23:19.482Z,7.63
2019-03-12T11:24:19.496Z,7.61
2019-03-12T11:25:27.192Z,7.66
2019-03-12T11:26:21.486Z,7.69
2019-03-12T11:27:19.521Z,7.58
2019-03-12T11:28:19.498Z,7.63
2019-03-12T11:29:19.509Z,7.56
2019-03-12T11:30:19.498Z,7.56
2019-03-12T11:31:19.495Z,7.56
2019-03-12T11:32:19.512Z,7.57
2019-03-12T11:33:19.486Z,7.58
2019-03-12T11:34:19.520Z,7.58
2019-03-12T11:35:19.485Z,7.69
2019-03-12T11:36:19.505Z,7.63
2019-03-12T11:37:19.561Z,7.72
2019-03-12T11:38:19.494Z,7.77
2019-03-12T11:39:19.511Z,7.79
2019-03-12T11:40:19.510Z,7.77
2019-03-12T11:41:19.485Z,7.67
2019-03-12T11:42:19.583Z,7.70
2019-03-12T11:43:19.520Z,7.85
2019-03-12T11:44:19.497Z,7.82
2019-03-12T11:45:22.204Z,7.69
2019-03-12T11:46:20.521Z,7.76
2019-03-12T11:47:18.488Z,7.66
2019-03-12T11:48:19.510Z,7.66
2019-03-12T11:49:19.485Z,7.69
2019-03-12T11:50:19.480Z,7.73
2019-03-12T11:51:19.497Z,7.69
2019-03-12T11:52:19.488Z,7.66
2019-03-12T11:53:17.571Z,7.79
2019-03-12T11:54:19.797Z,7.73
2019-03-12T11:55:19.488Z,7.77
2019-03-12T11:56:19.541Z,7.77
2019-03-12T11:57:19.524Z,7.79
2019-03-12T11:58:19.505Z,7.97
2019-03-12T11:59:17.493Z,7.97
2019-03-12T12:00:19.541Z,7.90
2019-03-12T12:01:18.985Z,7.82
2019-03-12T12:02:18.994Z,7.87
2019-03-12T12:03:19.002Z,7.87
2019-03-12T12:04:18.998Z,7.75
2019-03-12T12:05:18.995Z,7.93
2019-03-12T12:06:19.021Z,7.98
2019-03-12T12:07:19.013Z,7.93
2019-03-12T12:08:18.990Z,7.94
2019-03-12T12:09:19.003Z,8.03
2019-03-12T12:10:18.372Z,7.98
2019-03-12T12:11:18.989Z,8.00
2019-03-12T12:12:19.014Z,8.03
2019-03-12T12:13:18.983Z,7.98
2019-03-12T12:14:19.003Z,8.05
2019-03-12T12:15:18.988Z,8.05
2019-03-12T12:16:18.987Z,8.00
2019-03-12T12:17:18.982Z,8.10
2019-03-12T12:18:18.988Z,8.10
2019-03-12T12:19:19.011Z,8.16
2019-03-12T12:20:29.010Z,8.20
2019-03-12T12:21:19.984Z,8.28
2019-03-12T12:22:18.982Z,8.33
2019-03-12T12:23:18.984Z,8.30
2019-03-12T12:24:18.991Z,8.36
2019-03-12T12:25:19.023Z,8.44
2019-03-12T12:26:18.990Z,8.34
2019-03-12T12:27:18.981Z,8.31
2019-03-12T12:28:18.987Z,8.27
2019-03-12T12:29:18.996Z,8.33
2019-03-12T12:30:18.995Z,8.28
2019-03-12T12:31:19.032Z,8.31
2019-03-12T12:32:18.985Z,8.30
2019-03-12T12:33:18.981Z,8.33
2019-03-12T12:34:18.993Z,8.33
2019-03-12T12:35:18.988Z,8.33
2019-03-12T12:36:18.986Z,8.44
2019-03-12T12:37:19.033Z,8.44
2019-03-12T12:38:18.982Z,8.48
2019-03-12T12:39:18.996Z,8.63
2019-03-12T12:40:18.986Z,8.51
2019-03-12T12:41:18.982Z,8.45
2019-03-12T12:42:18.989Z,8.58
2019-03-12T12:43:19.022Z,8.66
2019-03-12T12:44:18.995Z,8.55
2019-03-12T12:45:18.997Z,8.61
2019-03-12T12:46:18.486Z,8.64
2019-03-12T12:47:18.501Z,8.60
2019-03-12T12:48:18.493Z,8.64
2019-03-12T12:49:18.512Z,8.73
2019-03-12T12:50:18.488Z,8.76
2019-03-12T12:51:18.484Z,8.78
2019-03-12T12:52:17.499Z,8.89
2019-03-12T12:53:18.487Z,8.82
2019-03-12T12:54:18.482Z,9.03
2019-03-12T12:55:18.562Z,9.02
2019-03-12T12:56:18.486Z,9.13
2019-03-12T12:57:18.488Z,9.13
2019-03-12T12:58:16.895Z,9.18
2019-03-12T12:59:18.493Z,9.21
2019-03-12T13:00:18.484Z,9.28
2019-03-12T13:01:18.522Z,9.11
2019-03-12T13:02:18.495Z,9.21
2019-03-12T13:03:18.495Z,9.10
2019-03-12T13:04:16.794Z,9.23
2019-03-12T13:05:18.488Z,9.25
2019-03-12T13:06:18.488Z,9.28
2019-03-12T13:07:18.503Z,9.31
2019-03-12T13:08:18.493Z,9.37
2019-03-12T13:09:18.500Z,9.22
2019-03-12T13:10:16.729Z,9.10
2019-03-12T13:11:18.485Z,9.14
2019-03-12T13:12:18.498Z,9.11
2019-03-12T13:13:18.511Z,9.00
2019-03-12T13:14:18.493Z,9.06
2019-03-12T13:15:18.486Z,9.06
2019-03-12T13:16:25.020Z,9.10
2019-03-12T13:17:19.492Z,9.21
2019-03-12T13:18:18.489Z,9.11
2019-03-12T13:19:18.522Z,9.26
2019-03-12T13:20:18.496Z,9.23
2019-03-12T13:21:18.484Z,9.23
2019-03-12T13:22:18.490Z,9.21
2019-03-12T13:23:18.483Z,9.25